SAAP/PRA METAR and TAF weather

Enter ICAO airport designator
Station Type Date Time Source
SAAP METAR 2018/12/17 16:20 UTC NOAA

SAAP 171620Z 09013KT 4000 TSRA FEW040CB OVC050 22/21 Q1010


Station Type Date Time Source
SAAP Decoded METAR 2018/12/17 16:20 UTC NOAA

Parana Aerodrome, Argentina (SAAP) 31-47S 060-29W 78M
Dec 17, 2018 - 11:20 AM EST / 2018.12.17 1620 UTC
Wind: from the E (090 degrees) at 15 MPH (13 KT):0
Visibility: 2 mile(s):0
Sky conditions: overcast
Weather: rain with thunder; Cumulonimbus clouds observed
Temperature: 71 F (22 C)
Dew Point: 69 F (21 C)
Relative Humidity: 94%
Pressure (altimeter): 29.83 in. Hg (1010 hPa)
ob: SAAP 171620Z 09013KT 4000 TSRA FEW040CB OVC050 22/21 Q1010
cycle: 16

Station Type Date Time Source
SAAP TAF 2018/11/21 00:48 UTC NOAA

TAF TAF SAAP 212300Z 2200/2224 03010KT CAVOK TX30/2215Z TN22/2224Z
BECMG 2212/2214 20005KT 9999 SCT020 BKN050
BECMG 2214/2216 6000 RA SCT010 BKN040
TEMPO 2216/2220 5000 TSRA BKN010 BKN040 SCT045CB
BECMG 2220/2224 9999 BKN020


Example: see airport list